sensor_id;sensor_type;location;lat;lon;timestamp;P1;durP1;ratioP1;P2;durP2;ratioP2
11731;SDS011;5922;53.734;10.258;2023-02-01T00:01:24;27.43;;;5.50;;
11731;SDS011;5922;53.734;10.258;2023-02-01T00:03:51;15.03;;;4.30;;
11731;SDS011;5922;53.734;10.258;2023-02-01T00:06:18;24.47;;;4.30;;
11731;SDS011;5922;53.734;10.258;2023-02-01T00:08:46;22.67;;;4.20;;
11731;SDS011;5922;53.734;10.258;2023-02-01T00:11:14;12.83;;;3.77;;
11731;SDS011;5922;53.734;10.258;2023-02-01T00:13:42;20.43;;;4.40;;
11731;SDS011;5922;53.734;10.258;2023-02-01T00:16:10;18.53;;;4.23;;
11731;SDS011;5922;53.734;10.258;2023-02-01T00:18:38;17.13;;;4.03;;
11731;SDS011;5922;53.734;10.258;2023-02-01T00:21:05;17.07;;;4.10;;
11731;SDS011;5922;53.734;10.258;2023-02-01T00:23:32;15.20;;;3.97;;
11731;SDS011;5922;53.734;10.258;2023-02-01T00:26:00;20.17;;;3.80;;
11731;SDS011;5922;53.734;10.258;2023-02-01T00:28:28;23.80;;;4.57;;
11731;SDS011;5922;53.734;10.258;2023-02-01T00:30:56;17.33;;;4.67;;
11731;SDS011;5922;53.734;10.258;2023-02-01T00:33:23;21.97;;;3.77;;
11731;SDS011;5922;53.734;10.258;2023-02-01T00:35:50;14.40;;;4.07;;
11731;SDS011;5922;53.734;10.258;2023-02-01T00:38:18;21.73;;;4.57;;
11731;SDS011;5922;53.734;10.258;2023-02-01T00:40:45;20.20;;;3.87;;
11731;SDS011;5922;53.734;10.258;2023-02-01T00:43:12;23.60;;;4.73;;
11731;SDS011;5922;53.734;10.258;2023-02-01T00:45:41;19.23;;;4.30;;
11731;SDS011;5922;53.734;10.258;2023-02-01T00:48:08;23.97;;;4.93;;
11731;SDS011;5922;53.734;10.258;2023-02-01T00:50:35;22.10;;;4.87;;
11731;SDS011;5922;53.734;10.258;2023-02-01T00:53:02;23.80;;;5.67;;
11731;SDS011;5922;53.734;10.258;2023-02-01T00:55:30;15.93;;;4.03;;
11731;SDS011;5922;53.734;10.258;2023-02-01T00:57:57;21.40;;;5.43;;
11731;SDS011;5922;53.734;10.258;2023-02-01T01:00:24;21.80;;;5.27;;
11731;SDS011;5922;53.734;10.258;2023-02-01T01:02:53;22.07;;;5.47;;
11731;SDS011;5922;53.734;10.258;2023-02-01T01:05:21;24.10;;;4.80;;
11731;SDS011;5922;53.734;10.258;2023-02-01T01:07:48;21.03;;;4.87;;
11731;SDS011;5922;53.734;10.258;2023-02-01T01:10:16;15.17;;;4.50;;
11731;SDS011;5922;53.734;10.258;2023-02-01T01:12:43;21.53;;;4.67;;
11731;SDS011;5922;53.734;10.258;2023-02-01T01:15:10;25.27;;;5.13;;
11731;SDS011;5922;53.734;10.258;2023-02-01T01:17:37;28.73;;;5.23;;
11731;SDS011;5922;53.734;10.258;2023-02-01T01:20:06;24.30;;;5.00;;
11731;SDS011;5922;53.734;10.258;2023-02-01T01:22:34;19.53;;;4.57;;
11731;SDS011;5922;53.734;10.258;2023-02-01T01:25:01;25.93;;;4.63;;
11731;SDS011;5922;53.734;10.258;2023-02-01T01:27:28;21.67;;;4.63;;
11731;SDS011;5922;53.734;10.258;2023-02-01T01:29:55;20.57;;;4.97;;
11731;SDS011;5922;53.734;10.258;2023-02-01T01:32:23;19.90;;;4.73;;
11731;SDS011;5922;53.734;10.258;2023-02-01T01:34:50;26.37;;;5.10;;
11731;SDS011;5922;53.734;10.258;2023-02-01T01:37:18;19.90;;;5.23;;
11731;SDS011;5922;53.734;10.258;2023-02-01T01:39:46;22.37;;;4.80;;
11731;SDS011;5922;53.734;10.258;2023-02-01T01:42:13;35.37;;;5.80;;
11731;SDS011;5922;53.734;10.258;2023-02-01T01:44:57;31.83;;;5.37;;
11731;SDS011;5922;53.734;10.258;2023-02-01T01:47:24;24.40;;;5.83;;
11731;SDS011;5922;53.734;10.258;2023-02-01T01:49:52;34.77;;;6.63;;
11731;SDS011;5922;53.734;10.258;2023-02-01T01:52:21;29.90;;;5.10;;
11731;SDS011;5922;53.734;10.258;2023-02-01T01:54:48;32.53;;;6.83;;
11731;SDS011;5922;53.734;10.258;2023-02-01T01:57:16;25.97;;;5.57;;
11731;SDS011;5922;53.734;10.258;2023-02-01T01:59:46;30.00;;;5.97;;
11731;SDS011;5922;53.734;10.258;2023-02-01T02:02:14;23.80;;;5.40;;
11731;SDS011;5922;53.734;10.258;2023-02-01T02:04:42;23.73;;;5.67;;
11731;SDS011;5922;53.734;10.258;2023-02-01T02:07:10;32.47;;;6.30;;
11731;SDS011;5922;53.734;10.258;2023-02-01T02:09:39;26.90;;;5.87;;
11731;SDS011;5922;53.734;10.258;2023-02-01T02:12:08;28.70;;;5.53;;
11731;SDS011;5922;53.734;10.258;2023-02-01T02:14:35;29.50;;;6.00;;
11731;SDS011;5922;53.734;10.258;2023-02-01T02:17:07;22.93;;;5.80;;
11731;SDS011;5922;53.734;10.258;2023-02-01T02:22:27;20.77;;;5.10;;
11731;SDS011;5922;53.734;10.258;2023-02-01T02:25:11;27.40;;;6.00;;
11731;SDS011;5922;53.734;10.258;2023-02-01T02:27:40;30.47;;;5.43;;
11731;SDS011;5922;53.734;10.258;2023-02-01T02:35:45;22.03;;;5.47;;
11731;SDS011;5922;53.734;10.258;2023-02-01T02:38:15;23.27;;;5.47;;
11731;SDS011;5922;53.734;10.258;2023-02-01T02:40:46;23.73;;;5.20;;
11731;SDS011;5922;53.734;10.258;2023-02-01T02:43:16;32.70;;;5.77;;
11731;SDS011;5922;53.734;10.258;2023-02-01T02:46:06;26.07;;;5.93;;
11731;SDS011;5922;53.734;10.258;2023-02-01T02:48:54;17.67;;;5.23;;
11731;SDS011;5922;53.734;10.258;2023-02-01T02:51:23;24.20;;;6.50;;
11731;SDS011;5922;53.734;10.258;2023-02-01T02:54:10;30.10;;;6.47;;
11731;SDS011;5922;53.734;10.258;2023-02-01T02:56:56;24.77;;;5.50;;
11731;SDS011;5922;53.734;10.258;2023-02-01T02:59:43;13.37;;;3.47;;
11731;SDS011;5922;53.734;10.258;2023-02-01T03:02:28;17.87;;;3.90;;
11731;SDS011;5922;53.734;10.258;2023-02-01T03:05:14;15.00;;;4.20;;
11731;SDS011;5922;53.734;10.258;2023-02-01T03:07:48;15.47;;;4.03;;
11731;SDS011;5922;53.734;10.258;2023-02-01T03:10:16;12.37;;;2.90;;
11731;SDS011;5922;53.734;10.258;2023-02-01T03:12:44;12.50;;;3.13;;
11731;SDS011;5922;53.734;10.258;2023-02-01T03:15:24;16.63;;;4.20;;
11731;SDS011;5922;53.734;10.258;2023-02-01T03:17:55;19.93;;;3.80;;
11731;SDS011;5922;53.734;10.258;2023-02-01T03:20:22;16.63;;;4.60;;
11731;SDS011;5922;53.734;10.258;2023-02-01T03:22:52;13.50;;;3.97;;
11731;SDS011;5922;53.734;10.258;2023-02-01T03:25:21;15.77;;;3.83;;
11731;SDS011;5922;53.734;10.258;2023-02-01T03:27:51;17.07;;;3.90;;
11731;SDS011;5922;53.734;10.258;2023-02-01T03:30:21;15.60;;;3.77;;
11731;SDS011;5922;53.734;10.258;2023-02-01T03:32:49;21.00;;;4.50;;
11731;SDS011;5922;53.734;10.258;2023-02-01T03:35:26;21.70;;;4.90;;
11731;SDS011;5922;53.734;10.258;2023-02-01T03:38:02;18.60;;;4.53;;
11731;SDS011;5922;53.734;10.258;2023-02-01T03:40:30;21.33;;;4.70;;
11731;SDS011;5922;53.734;10.258;2023-02-01T03:42:59;15.10;;;3.53;;
11731;SDS011;5922;53.734;10.258;2023-02-01T03:45:34;13.40;;;3.60;;
11731;SDS011;5922;53.734;10.258;2023-02-01T03:48:05;21.37;;;4.97;;
11731;SDS011;5922;53.734;10.258;2023-02-01T03:50:36;20.93;;;4.37;;
11731;SDS011;5922;53.734;10.258;2023-02-01T03:53:07;17.50;;;3.60;;
11731;SDS011;5922;53.734;10.258;2023-02-01T03:55:35;21.03;;;4.50;;
11731;SDS011;5922;53.734;10.258;2023-02-01T03:58:04;21.97;;;4.47;;
11731;SDS011;5922;53.734;10.258;2023-02-01T04:00:33;23.87;;;4.57;;
11731;SDS011;5922;53.734;10.258;2023-02-01T04:03:00;23.43;;;5.23;;
11731;SDS011;5922;53.734;10.258;2023-02-01T04:05:28;11.70;;;3.50;;
11731;SDS011;5922;53.734;10.258;2023-02-01T04:07:55;14.77;;;3.73;;
11731;SDS011;5922;53.734;10.258;2023-02-01T04:10:24;12.30;;;3.20;;
11731;SDS011;5922;53.734;10.258;2023-02-01T04:12:53;9.87;;;3.23;;
11731;SDS011;5922;53.734;10.258;2023-02-01T04:15:21;20.17;;;6.10;;
11731;SDS011;5922;53.734;10.258;2023-02-01T04:17:50;13.27;;;4.33;;
11731;SDS011;5922;53.734;10.258;2023-02-01T04:20:17;26.17;;;8.77;;
11731;SDS011;5922;53.734;10.258;2023-02-01T04:22:47;16.00;;;4.47;;
11731;SDS011;5922;53.734;10.258;2023-02-01T04:25:14;9.70;;;2.50;;
11731;SDS011;5922;53.734;10.258;2023-02-01T04:27:43;12.60;;;3.17;;
11731;SDS011;5922;53.734;10.258;2023-02-01T04:30:11;11.83;;;2.80;;
11731;SDS011;5922;53.734;10.258;2023-02-01T04:32:38;7.80;;;2.10;;
11731;SDS011;5922;53.734;10.258;2023-02-01T04:35:06;11.03;;;2.93;;
11731;SDS011;5922;53.734;10.258;2023-02-01T04:37:34;12.20;;;3.07;;
11731;SDS011;5922;53.734;10.258;2023-02-01T04:40:06;15.03;;;4.03;;
11731;SDS011;5922;53.734;10.258;2023-02-01T04:42:33;12.60;;;3.43;;
11731;SDS011;5922;53.734;10.258;2023-02-01T04:45:10;16.57;;;3.93;;
11731;SDS011;5922;53.734;10.258;2023-02-01T04:47:38;12.13;;;3.17;;
11731;SDS011;5922;53.734;10.258;2023-02-01T04:50:05;13.07;;;3.63;;
11731;SDS011;5922;53.734;10.258;2023-02-01T04:52:35;13.07;;;3.20;;
11731;SDS011;5922;53.734;10.258;2023-02-01T04:55:02;10.40;;;2.70;;
11731;SDS011;5922;53.734;10.258;2023-02-01T04:57:30;11.00;;;3.27;;
11731;SDS011;5922;53.734;10.258;2023-02-01T04:59:57;10.30;;;2.77;;
11731;SDS011;5922;53.734;10.258;2023-02-01T05:02:30;11.10;;;2.57;;
11731;SDS011;5922;53.734;10.258;2023-02-01T05:05:00;7.17;;;2.40;;
11731;SDS011;5922;53.734;10.258;2023-02-01T05:07:27;10.67;;;2.30;;
11731;SDS011;5922;53.734;10.258;2023-02-01T05:09:59;7.83;;;2.27;;
11731;SDS011;5922;53.734;10.258;2023-02-01T05:12:27;7.93;;;2.13;;
11731;SDS011;5922;53.734;10.258;2023-02-01T05:15:11;7.93;;;2.53;;
11731;SDS011;5922;53.734;10.258;2023-02-01T05:17:45;9.80;;;2.20;;
11731;SDS011;5922;53.734;10.258;2023-02-01T05:20:12;8.90;;;2.07;;
11731;SDS011;5922;53.734;10.258;2023-02-01T05:22:40;6.23;;;2.43;;
11731;SDS011;5922;53.734;10.258;2023-02-01T05:25:07;6.40;;;1.87;;
11731;SDS011;5922;53.734;10.258;2023-02-01T05:27:35;12.37;;;2.03;;
11731;SDS011;5922;53.734;10.258;2023-02-01T05:30:02;9.13;;;2.10;;
11731;SDS011;5922;53.734;10.258;2023-02-01T05:32:29;7.83;;;2.00;;
11731;SDS011;5922;53.734;10.258;2023-02-01T05:34:58;10.10;;;2.70;;
11731;SDS011;5922;53.734;10.258;2023-02-01T05:37:35;6.63;;;2.00;;
11731;SDS011;5922;53.734;10.258;2023-02-01T05:40:04;5.63;;;2.10;;
11731;SDS011;5922;53.734;10.258;2023-02-01T05:42:36;6.03;;;2.10;;
11731;SDS011;5922;53.734;10.258;2023-02-01T05:45:03;8.30;;;2.80;;
11731;SDS011;5922;53.734;10.258;2023-02-01T05:47:37;4.30;;;1.77;;
11731;SDS011;5922;53.734;10.258;2023-02-01T05:50:10;9.47;;;2.10;;
11731;SDS011;5922;53.734;10.258;2023-02-01T05:52:37;6.03;;;2.43;;
11731;SDS011;5922;53.734;10.258;2023-02-01T05:55:04;7.57;;;1.77;;
11731;SDS011;5922;53.734;10.258;2023-02-01T05:57:32;5.57;;;1.57;;
11731;SDS011;5922;53.734;10.258;2023-02-01T06:00:02;3.23;;;1.10;;
11731;SDS011;5922;53.734;10.258;2023-02-01T06:02:29;3.80;;;1.43;;
11731;SDS011;5922;53.734;10.258;2023-02-01T06:04:59;3.90;;;1.27;;
11731;SDS011;5922;53.734;10.258;2023-02-01T06:07:32;2.53;;;1.17;;
11731;SDS011;5922;53.734;10.258;2023-02-01T06:10:21;3.33;;;1.03;;
11731;SDS011;5922;53.734;10.258;2023-02-01T06:12:51;1.50;;;1.07;;
11731;SDS011;5922;53.734;10.258;2023-02-01T06:18:13;0.97;;;0.87;;
11731;SDS011;5922;53.734;10.258;2023-02-01T06:20:41;2.10;;;0.90;;
11731;SDS011;5922;53.734;10.258;2023-02-01T06:23:23;3.90;;;1.20;;
11731;SDS011;5922;53.734;10.258;2023-02-01T06:25:57;3.83;;;1.30;;
11731;SDS011;5922;53.734;10.258;2023-02-01T06:28:26;3.60;;;1.13;;
11731;SDS011;5922;53.734;10.258;2023-02-01T06:30:56;2.90;;;1.20;;
11731;SDS011;5922;53.734;10.258;2023-02-01T06:33:26;4.80;;;1.23;;
11731;SDS011;5922;53.734;10.258;2023-02-01T06:35:58;1.63;;;0.90;;
11731;SDS011;5922;53.734;10.258;2023-02-01T06:38:27;3.53;;;1.47;;
11731;SDS011;5922;53.734;10.258;2023-02-01T06:40:57;4.57;;;1.37;;
11731;SDS011;5922;53.734;10.258;2023-02-01T06:43:26;2.10;;;1.13;;
11731;SDS011;5922;53.734;10.258;2023-02-01T06:45:54;3.53;;;1.00;;
11731;SDS011;5922;53.734;10.258;2023-02-01T06:48:26;4.03;;;1.30;;
11731;SDS011;5922;53.734;10.258;2023-02-01T06:50:53;2.40;;;1.30;;
11731;SDS011;5922;53.734;10.258;2023-02-01T06:53:23;3.73;;;1.60;;
11731;SDS011;5922;53.734;10.258;2023-02-01T06:55:55;5.60;;;1.60;;
11731;SDS011;5922;53.734;10.258;2023-02-01T06:58:22;4.10;;;1.57;;
11731;SDS011;5922;53.734;10.258;2023-02-01T07:00:50;7.73;;;1.70;;
11731;SDS011;5922;53.734;10.258;2023-02-01T07:03:18;4.33;;;2.07;;
11731;SDS011;5922;53.734;10.258;2023-02-01T07:05:46;6.77;;;1.97;;
11731;SDS011;5922;53.734;10.258;2023-02-01T07:08:13;5.47;;;1.70;;
11731;SDS011;5922;53.734;10.258;2023-02-01T07:10:43;8.30;;;2.50;;
11731;SDS011;5922;53.734;10.258;2023-02-01T07:13:13;9.53;;;2.10;;
11731;SDS011;5922;53.734;10.258;2023-02-01T07:15:40;9.40;;;2.43;;
11731;SDS011;5922;53.734;10.258;2023-02-01T07:18:08;10.93;;;2.70;;
11731;SDS011;5922;53.734;10.258;2023-02-01T07:20:35;8.60;;;2.13;;
11731;SDS011;5922;53.734;10.258;2023-02-01T07:23:03;14.67;;;2.27;;
11731;SDS011;5922;53.734;10.258;2023-02-01T07:25:30;14.83;;;3.10;;
11731;SDS011;5922;53.734;10.258;2023-02-01T07:28:03;10.90;;;2.87;;
11731;SDS011;5922;53.734;10.258;2023-02-01T07:30:32;10.43;;;2.30;;
11731;SDS011;5922;53.734;10.258;2023-02-01T07:33:04;11.77;;;3.10;;
11731;SDS011;5922;53.734;10.258;2023-02-01T07:35:36;12.87;;;2.57;;
11731;SDS011;5922;53.734;10.258;2023-02-01T07:38:06;13.73;;;3.50;;
11731;SDS011;5922;53.734;10.258;2023-02-01T07:40:35;19.00;;;3.33;;
11731;SDS011;5922;53.734;10.258;2023-02-01T07:43:03;12.33;;;3.10;;
11731;SDS011;5922;53.734;10.258;2023-02-01T07:45:36;16.40;;;4.00;;
11731;SDS011;5922;53.734;10.258;2023-02-01T07:48:06;15.97;;;3.83;;
11731;SDS011;5922;53.734;10.258;2023-02-01T07:50:36;12.70;;;3.60;;
11731;SDS011;5922;53.734;10.258;2023-02-01T07:53:11;19.07;;;4.53;;
11731;SDS011;5922;53.734;10.258;2023-02-01T07:55:38;22.40;;;4.57;;
11731;SDS011;5922;53.734;10.258;2023-02-01T07:58:08;15.97;;;4.77;;
11731;SDS011;5922;53.734;10.258;2023-02-01T08:00:37;21.27;;;4.10;;
11731;SDS011;5922;53.734;10.258;2023-02-01T08:03:24;17.53;;;4.20;;
11731;SDS011;5922;53.734;10.258;2023-02-01T08:05:55;15.03;;;4.10;;
11731;SDS011;5922;53.734;10.258;2023-02-01T08:08:25;20.93;;;3.70;;
11731;SDS011;5922;53.734;10.258;2023-02-01T08:10:56;16.87;;;4.50;;
11731;SDS011;5922;53.734;10.258;2023-02-01T08:13:29;24.23;;;4.77;;
11731;SDS011;5922;53.734;10.258;2023-02-01T08:16:05;20.73;;;4.67;;
11731;SDS011;5922;53.734;10.258;2023-02-01T08:18:36;19.23;;;4.00;;
11731;SDS011;5922;53.734;10.258;2023-02-01T08:21:21;16.03;;;4.00;;
11731;SDS011;5922;53.734;10.258;2023-02-01T08:23:53;20.67;;;4.57;;
11731;SDS011;5922;53.734;10.258;2023-02-01T08:26:27;19.87;;;4.43;;
11731;SDS011;5922;53.734;10.258;2023-02-01T08:29:04;24.30;;;5.07;;
11731;SDS011;5922;53.734;10.258;2023-02-01T08:31:35;16.73;;;3.70;;
11731;SDS011;5922;53.734;10.258;2023-02-01T08:34:08;21.97;;;4.57;;
11731;SDS011;5922;53.734;10.258;2023-02-01T08:36:46;20.83;;;5.17;;
11731;SDS011;5922;53.734;10.258;2023-02-01T08:39:37;22.23;;;5.17;;
11731;SDS011;5922;53.734;10.258;2023-02-01T08:42:12;24.50;;;4.97;;
11731;SDS011;5922;53.734;10.258;2023-02-01T08:45:03;18.23;;;4.50;;
11731;SDS011;5922;53.734;10.258;2023-02-01T08:47:40;20.10;;;4.20;;
11731;SDS011;5922;53.734;10.258;2023-02-01T08:50:12;16.03;;;3.40;;
11731;SDS011;5922;53.734;10.258;2023-02-01T08:55:31;9.70;;;1.80;;
11731;SDS011;5922;53.734;10.258;2023-02-01T08:58:01;8.43;;;1.70;;
11731;SDS011;5922;53.734;10.258;2023-02-01T09:00:35;5.97;;;1.30;;
11731;SDS011;5922;53.734;10.258;2023-02-01T09:03:04;3.87;;;1.53;;
11731;SDS011;5922;53.734;10.258;2023-02-01T09:05:31;8.73;;;2.13;;
11731;SDS011;5922;53.734;10.258;2023-02-01T09:07:58;6.70;;;2.17;;
11731;SDS011;5922;53.734;10.258;2023-02-01T09:10:26;10.47;;;2.47;;
11731;SDS011;5922;53.734;10.258;2023-02-01T09:12:53;10.60;;;2.60;;
11731;SDS011;5922;53.734;10.258;2023-02-01T09:15:20;9.13;;;2.63;;
11731;SDS011;5922;53.734;10.258;2023-02-01T09:17:48;9.87;;;2.53;;
11731;SDS011;5922;53.734;10.258;2023-02-01T09:20:17;7.03;;;2.60;;
11731;SDS011;5922;53.734;10.258;2023-02-01T09:22:49;11.43;;;3.00;;
11731;SDS011;5922;53.734;10.258;2023-02-01T09:25:17;13.87;;;2.83;;
11731;SDS011;5922;53.734;10.258;2023-02-01T09:27:47;13.20;;;3.13;;
11731;SDS011;5922;53.734;10.258;2023-02-01T09:30:14;13.20;;;3.00;;
11731;SDS011;5922;53.734;10.258;2023-02-01T09:32:42;10.03;;;2.67;;
11731;SDS011;5922;53.734;10.258;2023-02-01T09:35:09;16.37;;;3.10;;
11731;SDS011;5922;53.734;10.258;2023-02-01T09:37:38;14.73;;;3.00;;
11731;SDS011;5922;53.734;10.258;2023-02-01T09:40:05;15.17;;;3.80;;
11731;SDS011;5922;53.734;10.258;2023-02-01T09:42:53;16.47;;;4.07;;
11731;SDS011;5922;53.734;10.258;2023-02-01T09:45:27;21.80;;;3.60;;
11731;SDS011;5922;53.734;10.258;2023-02-01T09:47:57;15.53;;;3.63;;
11731;SDS011;5922;53.734;10.258;2023-02-01T09:50:28;16.27;;;3.70;;
11731;SDS011;5922;53.734;10.258;2023-02-01T09:52:58;17.00;;;4.27;;
11731;SDS011;5922;53.734;10.258;2023-02-01T09:55:30;16.60;;;4.17;;
11731;SDS011;5922;53.734;10.258;2023-02-01T09:58:03;16.00;;;4.50;;
11731;SDS011;5922;53.734;10.258;2023-02-01T10:00:34;18.30;;;4.27;;
11731;SDS011;5922;53.734;10.258;2023-02-01T10:03:02;22.40;;;4.63;;
11731;SDS011;5922;53.734;10.258;2023-02-01T10:05:38;18.47;;;3.97;;
11731;SDS011;5922;53.734;10.258;2023-02-01T10:08:09;22.37;;;4.70;;
11731;SDS011;5922;53.734;10.258;2023-02-01T10:10:41;16.60;;;4.03;;
11731;SDS011;5922;53.734;10.258;2023-02-01T10:13:27;28.03;;;4.73;;
11731;SDS011;5922;53.734;10.258;2023-02-01T10:16:04;17.20;;;4.53;;
11731;SDS011;5922;53.734;10.258;2023-02-01T10:18:41;21.30;;;5.00;;
11731;SDS011;5922;53.734;10.258;2023-02-01T10:21:15;16.90;;;4.47;;
11731;SDS011;5922;53.734;10.258;2023-02-01T10:26:29;23.27;;;4.50;;
11731;SDS011;5922;53.734;10.258;2023-02-01T10:29:00;18.00;;;4.40;;
11731;SDS011;5922;53.734;10.258;2023-02-01T10:31:29;22.27;;;4.63;;
11731;SDS011;5922;53.734;10.258;2023-02-01T10:33:58;15.77;;;3.97;;
11731;SDS011;5922;53.734;10.258;2023-02-01T10:36:27;18.50;;;4.20;;
11731;SDS011;5922;53.734;10.258;2023-02-01T10:38:55;21.27;;;4.67;;
11731;SDS011;5922;53.734;10.258;2023-02-01T10:41:24;21.13;;;4.57;;
11731;SDS011;5922;53.734;10.258;2023-02-01T10:43:56;18.63;;;4.27;;
11731;SDS011;5922;53.734;10.258;2023-02-01T10:46:27;18.77;;;4.10;;
11731;SDS011;5922;53.734;10.258;2023-02-01T10:48:55;15.07;;;3.80;;
11731;SDS011;5922;53.734;10.258;2023-02-01T10:51:26;13.97;;;4.10;;
11731;SDS011;5922;53.734;10.258;2023-02-01T10:53:54;17.53;;;4.40;;
11731;SDS011;5922;53.734;10.258;2023-02-01T10:56:22;15.97;;;4.17;;
11731;SDS011;5922;53.734;10.258;2023-02-01T10:58:59;26.00;;;4.93;;
11731;SDS011;5922;53.734;10.258;2023-02-01T11:01:30;24.70;;;5.23;;
11731;SDS011;5922;53.734;10.258;2023-02-01T11:03:58;17.67;;;4.47;;
11731;SDS011;5922;53.734;10.258;2023-02-01T11:06:27;20.63;;;5.70;;
11731;SDS011;5922;53.734;10.258;2023-02-01T11:08:55;20.37;;;4.80;;
11731;SDS011;5922;53.734;10.258;2023-02-01T11:11:23;26.53;;;4.93;;
11731;SDS011;5922;53.734;10.258;2023-02-01T11:13:54;18.40;;;5.03;;
11731;SDS011;5922;53.734;10.258;2023-02-01T11:16:27;19.97;;;4.73;;
11731;SDS011;5922;53.734;10.258;2023-02-01T11:18:59;23.67;;;4.63;;
11731;SDS011;5922;53.734;10.258;2023-02-01T11:21:27;21.37;;;4.97;;
11731;SDS011;5922;53.734;10.258;2023-02-01T11:23:54;19.00;;;4.40;;
11731;SDS011;5922;53.734;10.258;2023-02-01T11:26:22;15.30;;;4.60;;
11731;SDS011;5922;53.734;10.258;2023-02-01T11:28:51;26.47;;;5.37;;
11731;SDS011;5922;53.734;10.258;2023-02-01T11:31:18;20.80;;;4.23;;
11731;SDS011;5922;53.734;10.258;2023-02-01T11:33:48;21.97;;;4.73;;
11731;SDS011;5922;53.734;10.258;2023-02-01T11:36:18;18.33;;;4.43;;
11731;SDS011;5922;53.734;10.258;2023-02-01T11:38:53;22.33;;;4.87;;
11731;SDS011;5922;53.734;10.258;2023-02-01T11:41:24;24.60;;;4.30;;
11731;SDS011;5922;53.734;10.258;2023-02-01T11:44:11;14.73;;;3.83;;
11731;SDS011;5922;53.734;10.258;2023-02-01T11:46:43;21.53;;;4.30;;
11731;SDS011;5922;53.734;10.258;2023-02-01T11:49:21;14.23;;;4.07;;
11731;SDS011;5922;53.734;10.258;2023-02-01T11:54:40;18.43;;;5.73;;
11731;SDS011;5922;53.734;10.258;2023-02-01T11:57:23;25.10;;;5.13;;
11731;SDS011;5922;53.734;10.258;2023-02-01T11:59:57;15.50;;;3.67;;
11731;SDS011;5922;53.734;10.258;2023-02-01T12:05:34;11.53;;;3.47;;
11731;SDS011;5922;53.734;10.258;2023-02-01T12:08:19;14.43;;;3.60;;
11731;SDS011;5922;53.734;10.258;2023-02-01T12:13:53;19.67;;;4.20;;
11731;SDS011;5922;53.734;10.258;2023-02-01T12:16:35;15.27;;;4.10;;
11731;SDS011;5922;53.734;10.258;2023-02-01T12:19:15;13.60;;;3.20;;
11731;SDS011;5922;53.734;10.258;2023-02-01T12:24:49;12.50;;;3.63;;
11731;SDS011;5922;53.734;10.258;2023-02-01T12:33:04;14.30;;;2.70;;
11731;SDS011;5922;53.734;10.258;2023-02-01T12:35:56;7.33;;;2.40;;
11731;SDS011;5922;53.734;10.258;2023-02-01T12:38:31;10.23;;;2.47;;
11731;SDS011;5922;53.734;10.258;2023-02-01T12:44:03;11.47;;;2.80;;
11731;SDS011;5922;53.734;10.258;2023-02-01T12:46:57;9.30;;;2.20;;
11731;SDS011;5922;53.734;10.258;2023-02-01T12:49:31;7.13;;;1.50;;
11731;SDS011;5922;53.734;10.258;2023-02-01T12:52:03;5.60;;;1.53;;
11731;SDS011;5922;53.734;10.258;2023-02-01T12:54:50;3.40;;;1.20;;
11731;SDS011;5922;53.734;10.258;2023-02-01T12:57:26;2.70;;;1.30;;
11731;SDS011;5922;53.734;10.258;2023-02-01T13:00:12;3.23;;;1.20;;
11731;SDS011;5922;53.734;10.258;2023-02-01T13:02:52;3.93;;;1.33;;
11731;SDS011;5922;53.734;10.258;2023-02-01T13:05:28;3.20;;;1.30;;
11731;SDS011;5922;53.734;10.258;2023-02-01T13:08:02;1.80;;;0.93;;
11731;SDS011;5922;53.734;10.258;2023-02-01T13:10:33;3.97;;;1.20;;
11731;SDS011;5922;53.734;10.258;2023-02-01T13:13:04;4.30;;;1.20;;
11731;SDS011;5922;53.734;10.258;2023-02-01T13:15:47;4.50;;;1.07;;
11731;SDS011;5922;53.734;10.258;2023-02-01T13:18:34;2.20;;;1.03;;
11731;SDS011;5922;53.734;10.258;2023-02-01T13:21:12;4.77;;;1.17;;
11731;SDS011;5922;53.734;10.258;2023-02-01T13:23:49;2.60;;;1.03;;
11731;SDS011;5922;53.734;10.258;2023-02-01T13:26:30;3.00;;;1.70;;
11731;SDS011;5922;53.734;10.258;2023-02-01T13:29:03;2.87;;;1.10;;
11731;SDS011;5922;53.734;10.258;2023-02-01T13:34:47;2.67;;;1.07;;
11731;SDS011;5922;53.734;10.258;2023-02-01T13:40:20;2.33;;;0.93;;
11731;SDS011;5922;53.734;10.258;2023-02-01T13:42:52;3.13;;;1.30;;
11731;SDS011;5922;53.734;10.258;2023-02-01T13:45:30;3.40;;;1.23;;
11731;SDS011;5922;53.734;10.258;2023-02-01T13:48:20;5.33;;;1.87;;
11731;SDS011;5922;53.734;10.258;2023-02-01T13:50:54;1.50;;;1.00;;
11731;SDS011;5922;53.734;10.258;2023-02-01T13:53:28;2.97;;;1.37;;
11731;SDS011;5922;53.734;10.258;2023-02-01T13:56:06;1.30;;;1.00;;
11731;SDS011;5922;53.734;10.258;2023-02-01T13:58:41;1.47;;;0.90;;
11731;SDS011;5922;53.734;10.258;2023-02-01T14:07:20;5.03;;;1.40;;
11731;SDS011;5922;53.734;10.258;2023-02-01T14:12:49;5.13;;;1.13;;
11731;SDS011;5922;53.734;10.258;2023-02-01T14:15:36;4.63;;;2.00;;
11731;SDS011;5922;53.734;10.258;2023-02-01T14:21:19;5.77;;;1.90;;
11731;SDS011;5922;53.734;10.258;2023-02-01T14:24:31;10.67;;;1.90;;
11731;SDS011;5922;53.734;10.258;2023-02-01T14:26:51;6.80;;;2.00;;
11731;SDS011;5922;53.734;10.258;2023-02-01T14:29:33;8.00;;;1.67;;
11731;SDS011;5922;53.734;10.258;2023-02-01T14:32:18;5.33;;;1.80;;
11731;SDS011;5922;53.734;10.258;2023-02-01T14:34:51;4.60;;;1.63;;
11731;SDS011;5922;53.734;10.258;2023-02-01T14:37:24;5.03;;;1.87;;
11731;SDS011;5922;53.734;10.258;2023-02-01T14:40:00;4.93;;;1.40;;
11731;SDS011;5922;53.734;10.258;2023-02-01T14:42:31;3.67;;;1.40;;
11731;SDS011;5922;53.734;10.258;2023-02-01T14:50:51;4.97;;;1.50;;
11731;SDS011;5922;53.734;10.258;2023-02-01T14:53:29;6.00;;;1.40;;
11731;SDS011;5922;53.734;10.258;2023-02-01T14:56:07;5.20;;;2.00;;
11731;SDS011;5922;53.734;10.258;2023-02-01T14:58:39;6.33;;;2.00;;
11731;SDS011;5922;53.734;10.258;2023-02-01T15:01:18;4.73;;;1.87;;
11731;SDS011;5922;53.734;10.258;2023-02-01T15:04:05;6.17;;;1.60;;
11731;SDS011;5922;53.734;10.258;2023-02-01T15:06:48;7.47;;;2.03;;
11731;SDS011;5922;53.734;10.258;2023-02-01T15:09:29;9.03;;;2.70;;
11731;SDS011;5922;53.734;10.258;2023-02-01T15:12:00;8.60;;;2.60;;
11731;SDS011;5922;53.734;10.258;2023-02-01T15:14:43;11.47;;;2.70;;
11731;SDS011;5922;53.734;10.258;2023-02-01T15:17:30;9.23;;;2.47;;
11731;SDS011;5922;53.734;10.258;2023-02-01T15:20:15;7.10;;;2.50;;
11731;SDS011;5922;53.734;10.258;2023-02-01T15:25:40;9.93;;;2.50;;
11731;SDS011;5922;53.734;10.258;2023-02-01T15:28:10;7.43;;;2.53;;
11731;SDS011;5922;53.734;10.258;2023-02-01T15:30:53;13.50;;;3.00;;
11731;SDS011;5922;53.734;10.258;2023-02-01T15:33:49;7.40;;;2.80;;
11731;SDS011;5922;53.734;10.258;2023-02-01T15:36:28;11.43;;;2.90;;
11731;SDS011;5922;53.734;10.258;2023-02-01T15:39:21;11.30;;;2.83;;
11731;SDS011;5922;53.734;10.258;2023-02-01T15:41:58;13.27;;;2.73;;
11731;SDS011;5922;53.734;10.258;2023-02-01T15:44:33;13.73;;;3.10;;
11731;SDS011;5922;53.734;10.258;2023-02-01T15:47:13;10.13;;;2.70;;
11731;SDS011;5922;53.734;10.258;2023-02-01T15:49:50;10.80;;;2.90;;
11731;SDS011;5922;53.734;10.258;2023-02-01T15:52:24;12.27;;;3.17;;
11731;SDS011;5922;53.734;10.258;2023-02-01T15:54:54;13.43;;;3.63;;
11731;SDS011;5922;53.734;10.258;2023-02-01T15:57:26;17.73;;;3.40;;
11731;SDS011;5922;53.734;10.258;2023-02-01T15:59:56;11.50;;;3.47;;
11731;SDS011;5922;53.734;10.258;2023-02-01T16:02:33;14.93;;;3.67;;
11731;SDS011;5922;53.734;10.258;2023-02-01T16:05:03;16.77;;;3.50;;
11731;SDS011;5922;53.734;10.258;2023-02-01T16:07:33;9.73;;;3.50;;
11731;SDS011;5922;53.734;10.258;2023-02-01T16:12:50;15.23;;;3.23;;
11731;SDS011;5922;53.734;10.258;2023-02-01T16:15:23;13.13;;;3.20;;